sensor_id;sensor_type;location;lat;lon;timestamp;temperature;humidity
5278;DHT22;2662;51.194;6.614;2022-09-27T00:01:50;11.80;99.90
5278;DHT22;2662;51.194;6.614;2022-09-27T00:04:17;11.80;99.90
5278;DHT22;2662;51.194;6.614;2022-09-27T00:06:44;11.80;99.90
5278;DHT22;2662;51.194;6.614;2022-09-27T00:09:11;11.80;99.90
5278;DHT22;2662;51.194;6.614;2022-09-27T00:11:39;11.80;99.90
5278;DHT22;2662;51.194;6.614;2022-09-27T00:14:10;11.80;99.90
5278;DHT22;2662;51.194;6.614;2022-09-27T00:16:38;11.80;99.90
5278;DHT22;2662;51.194;6.614;2022-09-27T00:19:07;11.90;99.90
5278;DHT22;2662;51.194;6.614;2022-09-27T00:21:35;11.80;99.90
5278;DHT22;2662;51.194;6.614;2022-09-27T00:24:02;11.80;99.90
5278;DHT22;2662;51.194;6.614;2022-09-27T00:26:29;11.80;99.90
5278;DHT22;2662;51.194;6.614;2022-09-27T00:28:57;11.80;99.90
5278;DHT22;2662;51.194;6.614;2022-09-27T00:31:27;11.90;99.90
5278;DHT22;2662;51.194;6.614;2022-09-27T00:33:55;11.90;99.90
5278;DHT22;2662;51.194;6.614;2022-09-27T00:36:23;11.90;99.90
5278;DHT22;2662;51.194;6.614;2022-09-27T00:38:50;11.90;99.90
5278;DHT22;2662;51.194;6.614;2022-09-27T00:41:20;11.80;99.90
5278;DHT22;2662;51.194;6.614;2022-09-27T00:43:50;11.80;99.90
5278;DHT22;2662;51.194;6.614;2022-09-27T00:46:21;11.70;99.90
5278;DHT22;2662;51.194;6.614;2022-09-27T00:48:59;11.70;99.90
5278;DHT22;2662;51.194;6.614;2022-09-27T00:51:28;11.70;99.90
5278;DHT22;2662;51.194;6.614;2022-09-27T00:53:56;11.70;99.90
5278;DHT22;2662;51.194;6.614;2022-09-27T00:56:27;11.80;99.90
5278;DHT22;2662;51.194;6.614;2022-09-27T00:58:56;11.80;99.90
5278;DHT22;2662;51.194;6.614;2022-09-27T01:01:24;11.80;99.90
5278;DHT22;2662;51.194;6.614;2022-09-27T01:03:56;11.80;99.90
5278;DHT22;2662;51.194;6.614;2022-09-27T01:06:24;11.80;99.90
5278;DHT22;2662;51.194;6.614;2022-09-27T01:08:51;11.70;99.90
5278;DHT22;2662;51.194;6.614;2022-09-27T01:11:27;11.70;99.90
5278;DHT22;2662;51.194;6.614;2022-09-27T01:14:23;11.70;99.90
5278;DHT22;2662;51.194;6.614;2022-09-27T01:17:00;11.70;99.90
5278;DHT22;2662;51.194;6.614;2022-09-27T01:19:51;11.70;99.90
5278;DHT22;2662;51.194;6.614;2022-09-27T01:22:27;11.80;99.90
5278;DHT22;2662;51.194;6.614;2022-09-27T01:25:03;11.70;99.90
5278;DHT22;2662;51.194;6.614;2022-09-27T01:28:12;11.70;99.90
5278;DHT22;2662;51.194;6.614;2022-09-27T01:30:47;11.70;99.90
5278;DHT22;2662;51.194;6.614;2022-09-27T01:33:34;11.70;99.90
5278;DHT22;2662;51.194;6.614;2022-09-27T01:36:16;11.70;99.90
5278;DHT22;2662;51.194;6.614;2022-09-27T01:38:53;11.70;99.90
5278;DHT22;2662;51.194;6.614;2022-09-27T01:41:27;11.60;99.90
5278;DHT22;2662;51.194;6.614;2022-09-27T01:44:00;11.70;99.90
5278;DHT22;2662;51.194;6.614;2022-09-27T01:46:34;11.60;99.90
5278;DHT22;2662;51.194;6.614;2022-09-27T01:49:07;11.60;99.90
5278;DHT22;2662;51.194;6.614;2022-09-27T01:51:38;11.60;99.90
5278;DHT22;2662;51.194;6.614;2022-09-27T01:54:07;11.60;99.90
5278;DHT22;2662;51.194;6.614;2022-09-27T01:56:39;11.60;99.90
5278;DHT22;2662;51.194;6.614;2022-09-27T01:59:10;11.50;99.90
5278;DHT22;2662;51.194;6.614;2022-09-27T02:01:39;11.50;99.90
5278;DHT22;2662;51.194;6.614;2022-09-27T02:04:10;11.60;99.90
5278;DHT22;2662;51.194;6.614;2022-09-27T02:06:41;11.50;99.90
5278;DHT22;2662;51.194;6.614;2022-09-27T02:09:12;11.60;99.90
5278;DHT22;2662;51.194;6.614;2022-09-27T02:11:44;11.60;99.90
5278;DHT22;2662;51.194;6.614;2022-09-27T02:14:17;11.60;99.90
5278;DHT22;2662;51.194;6.614;2022-09-27T02:16:49;11.60;99.90
5278;DHT22;2662;51.194;6.614;2022-09-27T02:19:24;11.70;99.90
5278;DHT22;2662;51.194;6.614;2022-09-27T02:21:57;11.60;99.90
5278;DHT22;2662;51.194;6.614;2022-09-27T02:24:31;11.60;99.90
5278;DHT22;2662;51.194;6.614;2022-09-27T02:27:06;11.50;99.90
5278;DHT22;2662;51.194;6.614;2022-09-27T02:29:38;11.50;99.90
5278;DHT22;2662;51.194;6.614;2022-09-27T02:32:08;11.40;99.90
5278;DHT22;2662;51.194;6.614;2022-09-27T02:34:35;11.40;99.90
5278;DHT22;2662;51.194;6.614;2022-09-27T02:37:04;11.30;99.90
5278;DHT22;2662;51.194;6.614;2022-09-27T02:39:31;11.30;99.90
5278;DHT22;2662;51.194;6.614;2022-09-27T02:41:58;11.30;99.90
5278;DHT22;2662;51.194;6.614;2022-09-27T02:44:26;11.30;99.90
5278;DHT22;2662;51.194;6.614;2022-09-27T02:47:06;11.30;99.90
5278;DHT22;2662;51.194;6.614;2022-09-27T02:49:52;11.20;99.90
5278;DHT22;2662;51.194;6.614;2022-09-27T02:52:26;11.30;99.90
5278;DHT22;2662;51.194;6.614;2022-09-27T02:55:06;11.20;99.90
5278;DHT22;2662;51.194;6.614;2022-09-27T02:57:41;11.30;99.90
5278;DHT22;2662;51.194;6.614;2022-09-27T03:00:14;11.20;99.90
5278;DHT22;2662;51.194;6.614;2022-09-27T03:02:49;11.10;99.90
5278;DHT22;2662;51.194;6.614;2022-09-27T03:05:20;11.00;99.90
5278;DHT22;2662;51.194;6.614;2022-09-27T03:07:48;10.90;99.90
5278;DHT22;2662;51.194;6.614;2022-09-27T03:10:16;10.90;99.90
5278;DHT22;2662;51.194;6.614;2022-09-27T03:12:44;10.80;99.90
5278;DHT22;2662;51.194;6.614;2022-09-27T03:15:11;10.70;99.90
5278;DHT22;2662;51.194;6.614;2022-09-27T03:17:38;10.60;99.90
5278;DHT22;2662;51.194;6.614;2022-09-27T03:20:05;10.60;99.90
5278;DHT22;2662;51.194;6.614;2022-09-27T03:22:34;10.60;99.90
5278;DHT22;2662;51.194;6.614;2022-09-27T03:25:03;10.50;99.90
5278;DHT22;2662;51.194;6.614;2022-09-27T03:27:30;10.50;99.90
5278;DHT22;2662;51.194;6.614;2022-09-27T03:29:57;10.40;99.90
5278;DHT22;2662;51.194;6.614;2022-09-27T03:32:24;10.40;99.90
5278;DHT22;2662;51.194;6.614;2022-09-27T03:34:51;10.40;99.90
5278;DHT22;2662;51.194;6.614;2022-09-27T03:37:19;10.40;99.90
5278;DHT22;2662;51.194;6.614;2022-09-27T03:39:48;10.40;99.90
5278;DHT22;2662;51.194;6.614;2022-09-27T03:42:14;10.30;99.90
5278;DHT22;2662;51.194;6.614;2022-09-27T03:44:41;10.40;99.90
5278;DHT22;2662;51.194;6.614;2022-09-27T03:47:08;10.30;99.90
5278;DHT22;2662;51.194;6.614;2022-09-27T03:49:35;10.30;99.90
5278;DHT22;2662;51.194;6.614;2022-09-27T03:52:02;10.30;99.90
5278;DHT22;2662;51.194;6.614;2022-09-27T03:54:29;10.20;99.90
5278;DHT22;2662;51.194;6.614;2022-09-27T03:56:57;10.20;99.90
5278;DHT22;2662;51.194;6.614;2022-09-27T03:59:24;10.20;99.90
5278;DHT22;2662;51.194;6.614;2022-09-27T04:01:51;10.20;99.90
5278;DHT22;2662;51.194;6.614;2022-09-27T04:04:18;10.10;99.90
5278;DHT22;2662;51.194;6.614;2022-09-27T04:06:44;10.10;99.90
5278;DHT22;2662;51.194;6.614;2022-09-27T04:09:11;10.10;99.90
5278;DHT22;2662;51.194;6.614;2022-09-27T04:11:38;10.10;99.90
5278;DHT22;2662;51.194;6.614;2022-09-27T04:14:06;10.10;99.90
5278;DHT22;2662;51.194;6.614;2022-09-27T04:16:37;10.10;99.90
5278;DHT22;2662;51.194;6.614;2022-09-27T04:19:04;10.10;99.90
5278;DHT22;2662;51.194;6.614;2022-09-27T04:21:31;10.10;99.90
5278;DHT22;2662;51.194;6.614;2022-09-27T04:23:58;10.20;99.90
5278;DHT22;2662;51.194;6.614;2022-09-27T04:26:25;10.20;99.90
5278;DHT22;2662;51.194;6.614;2022-09-27T04:28:52;10.10;99.90
5278;DHT22;2662;51.194;6.614;2022-09-27T04:31:21;10.10;99.90
5278;DHT22;2662;51.194;6.614;2022-09-27T04:33:48;10.10;99.90
5278;DHT22;2662;51.194;6.614;2022-09-27T04:36:17;10.10;99.90
5278;DHT22;2662;51.194;6.614;2022-09-27T04:38:53;10.10;99.90
5278;DHT22;2662;51.194;6.614;2022-09-27T04:41:20;10.10;99.90
5278;DHT22;2662;51.194;6.614;2022-09-27T04:43:48;10.10;99.90
5278;DHT22;2662;51.194;6.614;2022-09-27T04:46:15;10.20;99.90
5278;DHT22;2662;51.194;6.614;2022-09-27T04:48:43;10.20;99.90
5278;DHT22;2662;51.194;6.614;2022-09-27T04:51:10;10.20;99.90
5278;DHT22;2662;51.194;6.614;2022-09-27T04:53:37;10.20;99.90
5278;DHT22;2662;51.194;6.614;2022-09-27T04:56:04;10.20;99.90
5278;DHT22;2662;51.194;6.614;2022-09-27T04:58:32;10.20;99.90
5278;DHT22;2662;51.194;6.614;2022-09-27T05:00:59;10.20;99.90
5278;DHT22;2662;51.194;6.614;2022-09-27T05:03:28;10.10;99.90
5278;DHT22;2662;51.194;6.614;2022-09-27T05:05:56;10.10;99.90
5278;DHT22;2662;51.194;6.614;2022-09-27T05:08:23;10.00;99.90
5278;DHT22;2662;51.194;6.614;2022-09-27T05:10:50;10.10;99.90
5278;DHT22;2662;51.194;6.614;2022-09-27T05:13:17;9.90;99.90
5278;DHT22;2662;51.194;6.614;2022-09-27T05:15:44;9.90;99.90
5278;DHT22;2662;51.194;6.614;2022-09-27T05:18:11;9.90;99.90
5278;DHT22;2662;51.194;6.614;2022-09-27T05:20:37;9.90;99.90
5278;DHT22;2662;51.194;6.614;2022-09-27T05:23:06;10.00;99.90
5278;DHT22;2662;51.194;6.614;2022-09-27T05:25:34;10.10;99.90
5278;DHT22;2662;51.194;6.614;2022-09-27T05:28:01;10.10;99.90
5278;DHT22;2662;51.194;6.614;2022-09-27T05:30:29;10.10;99.90
5278;DHT22;2662;51.194;6.614;2022-09-27T05:32:55;10.10;99.90
5278;DHT22;2662;51.194;6.614;2022-09-27T05:35:22;10.10;99.90
5278;DHT22;2662;51.194;6.614;2022-09-27T05:37:53;10.10;99.90
5278;DHT22;2662;51.194;6.614;2022-09-27T05:40:22;10.10;99.90
5278;DHT22;2662;51.194;6.614;2022-09-27T05:42:51;10.10;99.90
5278;DHT22;2662;51.194;6.614;2022-09-27T05:45:18;10.20;99.90
5278;DHT22;2662;51.194;6.614;2022-09-27T05:47:52;10.30;99.90
5278;DHT22;2662;51.194;6.614;2022-09-27T05:50:19;10.40;99.90
5278;DHT22;2662;51.194;6.614;2022-09-27T05:52:46;10.30;99.90
5278;DHT22;2662;51.194;6.614;2022-09-27T05:55:12;10.30;99.90
5278;DHT22;2662;51.194;6.614;2022-09-27T05:57:41;10.30;99.90
5278;DHT22;2662;51.194;6.614;2022-09-27T06:00:08;10.40;99.90
5278;DHT22;2662;51.194;6.614;2022-09-27T06:02:35;10.40;99.90
5278;DHT22;2662;51.194;6.614;2022-09-27T06:05:03;10.40;99.90
5278;DHT22;2662;51.194;6.614;2022-09-27T06:07:30;10.40;99.90
5278;DHT22;2662;51.194;6.614;2022-09-27T06:09:57;10.50;99.90
5278;DHT22;2662;51.194;6.614;2022-09-27T06:12:24;10.50;99.90
5278;DHT22;2662;51.194;6.614;2022-09-27T06:14:52;10.50;99.90
5278;DHT22;2662;51.194;6.614;2022-09-27T06:17:19;10.50;99.90
5278;DHT22;2662;51.194;6.614;2022-09-27T06:19:46;10.60;99.90
5278;DHT22;2662;51.194;6.614;2022-09-27T06:22:14;10.60;99.90
5278;DHT22;2662;51.194;6.614;2022-09-27T06:24:40;10.60;99.90
5278;DHT22;2662;51.194;6.614;2022-09-27T06:27:07;10.70;99.90
5278;DHT22;2662;51.194;6.614;2022-09-27T06:29:34;10.70;99.90
5278;DHT22;2662;51.194;6.614;2022-09-27T06:32:03;10.70;99.90
5278;DHT22;2662;51.194;6.614;2022-09-27T06:34:30;10.80;99.90
5278;DHT22;2662;51.194;6.614;2022-09-27T06:36:57;10.80;99.90
5278;DHT22;2662;51.194;6.614;2022-09-27T06:39:24;10.90;99.90
5278;DHT22;2662;51.194;6.614;2022-09-27T06:41:53;10.90;99.90
5278;DHT22;2662;51.194;6.614;2022-09-27T06:44:22;10.90;99.90
5278;DHT22;2662;51.194;6.614;2022-09-27T06:46:50;10.90;99.90
5278;DHT22;2662;51.194;6.614;2022-09-27T06:49:18;10.90;99.90
5278;DHT22;2662;51.194;6.614;2022-09-27T06:51:47;10.90;99.90
5278;DHT22;2662;51.194;6.614;2022-09-27T06:54:14;11.00;99.90
5278;DHT22;2662;51.194;6.614;2022-09-27T06:56:41;11.00;99.90
5278;DHT22;2662;51.194;6.614;2022-09-27T06:59:07;11.00;99.90
5278;DHT22;2662;51.194;6.614;2022-09-27T07:01:52;10.90;99.90
5278;DHT22;2662;51.194;6.614;2022-09-27T07:04:20;10.90;99.90
5278;DHT22;2662;51.194;6.614;2022-09-27T07:06:47;10.80;99.90
5278;DHT22;2662;51.194;6.614;2022-09-27T07:09:13;10.90;99.90
5278;DHT22;2662;51.194;6.614;2022-09-27T07:11:41;10.90;99.90
5278;DHT22;2662;51.194;6.614;2022-09-27T07:14:10;10.90;99.90
5278;DHT22;2662;51.194;6.614;2022-09-27T07:16:37;10.90;99.90
5278;DHT22;2662;51.194;6.614;2022-09-27T07:19:04;10.90;99.90
5278;DHT22;2662;51.194;6.614;2022-09-27T07:21:33;10.90;99.90
5278;DHT22;2662;51.194;6.614;2022-09-27T07:24:00;11.00;99.90
5278;DHT22;2662;51.194;6.614;2022-09-27T07:26:27;11.00;99.90
5278;DHT22;2662;51.194;6.614;2022-09-27T07:28:54;11.00;99.90
5278;DHT22;2662;51.194;6.614;2022-09-27T07:31:21;11.10;99.90
5278;DHT22;2662;51.194;6.614;2022-09-27T07:33:48;11.10;99.90
5278;DHT22;2662;51.194;6.614;2022-09-27T07:36:17;11.10;99.90
5278;DHT22;2662;51.194;6.614;2022-09-27T07:38:45;11.00;99.90
5278;DHT22;2662;51.194;6.614;2022-09-27T07:41:13;11.20;99.90
5278;DHT22;2662;51.194;6.614;2022-09-27T07:43:40;11.30;99.90
5278;DHT22;2662;51.194;6.614;2022-09-27T07:46:08;11.40;99.90
5278;DHT22;2662;51.194;6.614;2022-09-27T07:48:35;11.50;99.90
5278;DHT22;2662;51.194;6.614;2022-09-27T07:51:02;11.50;99.90
5278;DHT22;2662;51.194;6.614;2022-09-27T07:53:32;11.50;99.90
5278;DHT22;2662;51.194;6.614;2022-09-27T07:56:00;11.70;99.90
5278;DHT22;2662;51.194;6.614;2022-09-27T07:58:27;11.80;99.90
5278;DHT22;2662;51.194;6.614;2022-09-27T08:00:58;11.90;99.90
5278;DHT22;2662;51.194;6.614;2022-09-27T08:03:25;12.00;99.90
5278;DHT22;2662;51.194;6.614;2022-09-27T08:05:51;12.00;99.90
5278;DHT22;2662;51.194;6.614;2022-09-27T08:08:18;12.10;99.90
5278;DHT22;2662;51.194;6.614;2022-09-27T08:10:45;12.10;99.90
5278;DHT22;2662;51.194;6.614;2022-09-27T08:13:14;12.20;99.90
5278;DHT22;2662;51.194;6.614;2022-09-27T08:15:45;12.40;99.90
5278;DHT22;2662;51.194;6.614;2022-09-27T08:18:13;12.60;99.90
5278;DHT22;2662;51.194;6.614;2022-09-27T08:20:40;12.60;99.90
5278;DHT22;2662;51.194;6.614;2022-09-27T08:23:07;12.60;99.90
5278;DHT22;2662;51.194;6.614;2022-09-27T08:25:34;12.70;99.90
5278;DHT22;2662;51.194;6.614;2022-09-27T08:28:02;12.60;99.90
5278;DHT22;2662;51.194;6.614;2022-09-27T08:30:31;12.60;99.90
5278;DHT22;2662;51.194;6.614;2022-09-27T08:32:59;12.50;99.90
5278;DHT22;2662;51.194;6.614;2022-09-27T08:35:28;12.50;99.90
5278;DHT22;2662;51.194;6.614;2022-09-27T08:37:55;12.50;99.90
5278;DHT22;2662;51.194;6.614;2022-09-27T08:40:28;12.50;99.90
5278;DHT22;2662;51.194;6.614;2022-09-27T08:43:05;12.60;99.90
5278;DHT22;2662;51.194;6.614;2022-09-27T08:45:41;12.70;99.90
5278;DHT22;2662;51.194;6.614;2022-09-27T08:48:14;12.60;99.90
5278;DHT22;2662;51.194;6.614;2022-09-27T08:50:43;12.70;99.90
5278;DHT22;2662;51.194;6.614;2022-09-27T08:53:18;12.60;99.90
5278;DHT22;2662;51.194;6.614;2022-09-27T08:55:48;12.70;99.90
5278;DHT22;2662;51.194;6.614;2022-09-27T08:58:22;12.80;99.90
5278;DHT22;2662;51.194;6.614;2022-09-27T09:00:54;12.90;99.90
5278;DHT22;2662;51.194;6.614;2022-09-27T09:03:24;13.00;99.90
5278;DHT22;2662;51.194;6.614;2022-09-27T09:06:12;13.10;99.90
5278;DHT22;2662;51.194;6.614;2022-09-27T09:08:54;13.20;99.90
5278;DHT22;2662;51.194;6.614;2022-09-27T09:11:30;13.10;99.90
5278;DHT22;2662;51.194;6.614;2022-09-27T09:14:32;13.30;99.90
5278;DHT22;2662;51.194;6.614;2022-09-27T09:17:12;13.50;99.90
5278;DHT22;2662;51.194;6.614;2022-09-27T09:19:54;13.80;99.90
5278;DHT22;2662;51.194;6.614;2022-09-27T09:22:41;14.10;99.90
5278;DHT22;2662;51.194;6.614;2022-09-27T09:25:33;14.10;99.90
5278;DHT22;2662;51.194;6.614;2022-09-27T09:28:10;14.30;99.90
5278;DHT22;2662;51.194;6.614;2022-09-27T09:30:49;14.40;99.90
5278;DHT22;2662;51.194;6.614;2022-09-27T09:33:26;14.20;99.90
5278;DHT22;2662;51.194;6.614;2022-09-27T09:35:56;13.90;99.90
5278;DHT22;2662;51.194;6.614;2022-09-27T09:38:33;13.80;99.90
5278;DHT22;2662;51.194;6.614;2022-09-27T09:41:06;13.90;99.90
5278;DHT22;2662;51.194;6.614;2022-09-27T09:43:36;14.00;99.90
5278;DHT22;2662;51.194;6.614;2022-09-27T09:46:08;14.10;99.90
5278;DHT22;2662;51.194;6.614;2022-09-27T09:48:44;14.20;99.90
5278;DHT22;2662;51.194;6.614;2022-09-27T09:51:17;14.60;99.90
5278;DHT22;2662;51.194;6.614;2022-09-27T09:53:50;14.90;99.90
5278;DHT22;2662;51.194;6.614;2022-09-27T09:56:23;15.20;99.90
5278;DHT22;2662;51.194;6.614;2022-09-27T09:58:53;15.10;99.90
5278;DHT22;2662;51.194;6.614;2022-09-27T10:01:23;14.90;99.90
5278;DHT22;2662;51.194;6.614;2022-09-27T10:03:54;14.60;99.90
5278;DHT22;2662;51.194;6.614;2022-09-27T10:06:22;14.30;99.90
5278;DHT22;2662;51.194;6.614;2022-09-27T10:08:50;14.30;99.90
5278;DHT22;2662;51.194;6.614;2022-09-27T10:11:22;14.30;99.90
5278;DHT22;2662;51.194;6.614;2022-09-27T10:13:49;14.20;99.90
5278;DHT22;2662;51.194;6.614;2022-09-27T10:16:19;14.10;99.90
5278;DHT22;2662;51.194;6.614;2022-09-27T10:18:46;14.20;99.90
5278;DHT22;2662;51.194;6.614;2022-09-27T10:21:18;14.20;99.90
5278;DHT22;2662;51.194;6.614;2022-09-27T10:24:06;14.20;99.90
5278;DHT22;2662;51.194;6.614;2022-09-27T10:26:35;14.00;99.90
5278;DHT22;2662;51.194;6.614;2022-09-27T10:29:19;13.90;99.90
5278;DHT22;2662;51.194;6.614;2022-09-27T10:31:48;13.70;99.90
5278;DHT22;2662;51.194;6.614;2022-09-27T10:34:17;13.70;99.90
5278;DHT22;2662;51.194;6.614;2022-09-27T10:37:01;13.60;99.90
5278;DHT22;2662;51.194;6.614;2022-09-27T10:39:28;13.60;99.90
5278;DHT22;2662;51.194;6.614;2022-09-27T10:41:55;13.50;99.90
5278;DHT22;2662;51.194;6.614;2022-09-27T10:44:25;13.50;99.90
5278;DHT22;2662;51.194;6.614;2022-09-27T10:46:53;13.60;99.90
5278;DHT22;2662;51.194;6.614;2022-09-27T10:49:24;13.60;99.90
5278;DHT22;2662;51.194;6.614;2022-09-27T10:51:55;13.60;99.90
5278;DHT22;2662;51.194;6.614;2022-09-27T10:54:24;13.70;99.90
5278;DHT22;2662;51.194;6.614;2022-09-27T10:56:57;13.70;99.90
5278;DHT22;2662;51.194;6.614;2022-09-27T10:59:25;13.90;99.90
5278;DHT22;2662;51.194;6.614;2022-09-27T11:01:52;13.90;99.90
5278;DHT22;2662;51.194;6.614;2022-09-27T11:04:24;14.10;99.90
5278;DHT22;2662;51.194;6.614;2022-09-27T11:07:06;14.20;99.90
5278;DHT22;2662;51.194;6.614;2022-09-27T11:09:45;14.30;99.90
5278;DHT22;2662;51.194;6.614;2022-09-27T11:12:13;14.40;99.90
5278;DHT22;2662;51.194;6.614;2022-09-27T11:14:41;14.60;99.90
5278;DHT22;2662;51.194;6.614;2022-09-27T11:17:12;14.60;99.90
5278;DHT22;2662;51.194;6.614;2022-09-27T11:19:51;14.60;99.90
5278;DHT22;2662;51.194;6.614;2022-09-27T11:22:30;14.70;99.90
5278;DHT22;2662;51.194;6.614;2022-09-27T11:25:09;14.80;99.90
5278;DHT22;2662;51.194;6.614;2022-09-27T11:27:48;15.00;99.90
5278;DHT22;2662;51.194;6.614;2022-09-27T11:30:19;15.10;99.90
5278;DHT22;2662;51.194;6.614;2022-09-27T11:33:26;14.90;99.90
5278;DHT22;2662;51.194;6.614;2022-09-27T11:36:03;14.80;99.90
5278;DHT22;2662;51.194;6.614;2022-09-27T11:38:37;14.80;99.90
5278;DHT22;2662;51.194;6.614;2022-09-27T11:41:23;14.80;99.90
5278;DHT22;2662;51.194;6.614;2022-09-27T11:44:02;14.90;99.90
5278;DHT22;2662;51.194;6.614;2022-09-27T11:46:33;15.10;99.90
5278;DHT22;2662;51.194;6.614;2022-09-27T11:49:23;15.40;99.90
5278;DHT22;2662;51.194;6.614;2022-09-27T11:52:03;15.40;99.90
5278;DHT22;2662;51.194;6.614;2022-09-27T11:55:02;15.30;99.90
5278;DHT22;2662;51.194;6.614;2022-09-27T11:57:31;14.90;99.90
5278;DHT22;2662;51.194;6.614;2022-09-27T12:00:21;14.70;99.90
5278;DHT22;2662;51.194;6.614;2022-09-27T12:03:19;14.60;99.90
5278;DHT22;2662;51.194;6.614;2022-09-27T12:06:00;14.70;99.90
5278;DHT22;2662;51.194;6.614;2022-09-27T12:08:37;14.80;99.90
5278;DHT22;2662;51.194;6.614;2022-09-27T12:11:13;14.80;99.90
5278;DHT22;2662;51.194;6.614;2022-09-27T12:13:45;14.90;99.90
5278;DHT22;2662;51.194;6.614;2022-09-27T12:16:15;14.70;99.90
5278;DHT22;2662;51.194;6.614;2022-09-27T12:18:43;14.50;99.90
5278;DHT22;2662;51.194;6.614;2022-09-27T12:21:12;14.60;99.90
5278;DHT22;2662;51.194;6.614;2022-09-27T12:23:41;14.70;99.90
5278;DHT22;2662;51.194;6.614;2022-09-27T12:26:13;14.40;99.90
5278;DHT22;2662;51.194;6.614;2022-09-27T12:28:45;14.30;99.90
5278;DHT22;2662;51.194;6.614;2022-09-27T12:31:17;14.20;99.90
5278;DHT22;2662;51.194;6.614;2022-09-27T12:33:50;14.30;99.90
5278;DHT22;2662;51.194;6.614;2022-09-27T12:36:20;14.40;99.90
5278;DHT22;2662;51.194;6.614;2022-09-27T12:38:54;14.50;99.90
5278;DHT22;2662;51.194;6.614;2022-09-27T12:41:25;14.20;99.90
5278;DHT22;2662;51.194;6.614;2022-09-27T12:43:54;13.80;99.90
5278;DHT22;2662;51.194;6.614;2022-09-27T12:46:29;13.40;99.90
5278;DHT22;2662;51.194;6.614;2022-09-27T12:49:04;13.20;99.90
5278;DHT22;2662;51.194;6.614;2022-09-27T12:51:33;13.00;99.90
5278;DHT22;2662;51.194;6.614;2022-09-27T12:54:13;13.20;99.90
5278;DHT22;2662;51.194;6.614;2022-09-27T12:56:52;13.30;99.90
5278;DHT22;2662;51.194;6.614;2022-09-27T12:59:38;13.30;99.90
5278;DHT22;2662;51.194;6.614;2022-09-27T13:02:25;13.30;99.90
5278;DHT22;2662;51.194;6.614;2022-09-27T13:05:11;13.30;99.90
5278;DHT22;2662;51.194;6.614;2022-09-27T13:07:53;13.40;99.90
5278;DHT22;2662;51.194;6.614;2022-09-27T13:10:50;13.40;99.90
5278;DHT22;2662;51.194;6.614;2022-09-27T13:13:21;13.50;99.90
5278;DHT22;2662;51.194;6.614;2022-09-27T13:15:55;13.80;99.90
5278;DHT22;2662;51.194;6.614;2022-09-27T13:18:32;13.90;99.90
5278;DHT22;2662;51.194;6.614;2022-09-27T13:24:44;14.20;99.90
5278;DHT22;2662;51.194;6.614;2022-09-27T13:27:35;14.40;99.90
5278;DHT22;2662;51.194;6.614;2022-09-27T13:33:32;14.40;99.90
5278;DHT22;2662;51.194;6.614;2022-09-27T13:36:25;14.40;99.90
5278;DHT22;2662;51.194;6.614;2022-09-27T13:42:08;14.50;99.90
5278;DHT22;2662;51.194;6.614;2022-09-27T13:44:43;14.50;99.90
5278;DHT22;2662;51.194;6.614;2022-09-27T13:47:22;14.30;99.90
5278;DHT22;2662;51.194;6.614;2022-09-27T13:49:58;14.10;99.90
5278;DHT22;2662;51.194;6.614;2022-09-27T13:52:31;14.20;99.90
5278;DHT22;2662;51.194;6.614;2022-09-27T13:55:00;14.40;99.90
5278;DHT22;2662;51.194;6.614;2022-09-27T13:57:50;14.70;99.90
5278;DHT22;2662;51.194;6.614;2022-09-27T14:00:20;15.00;99.90
5278;DHT22;2662;51.194;6.614;2022-09-27T14:02:58;15.10;99.90
5278;DHT22;2662;51.194;6.614;2022-09-27T14:05:35;15.20;99.90
5278;DHT22;2662;51.194;6.614;2022-09-27T14:08:04;15.20;99.90
5278;DHT22;2662;51.194;6.614;2022-09-27T14:10:34;15.10;99.90
5278;DHT22;2662;51.194;6.614;2022-09-27T14:13:03;15.10;99.90
5278;DHT22;2662;51.194;6.614;2022-09-27T14:15:31;14.90;99.90
5278;DHT22;2662;51.194;6.614;2022-09-27T14:17:58;14.70;99.90
5278;DHT22;2662;51.194;6.614;2022-09-27T14:20:35;14.60;99.90
5278;DHT22;2662;51.194;6.614;2022-09-27T14:23:03;14.50;99.90
5278;DHT22;2662;51.194;6.614;2022-09-27T14:25:30;14.50;99.90
5278;DHT22;2662;51.194;6.614;2022-09-27T14:27:57;14.50;99.90
5278;DHT22;2662;51.194;6.614;2022-09-27T14:30:26;14.50;99.90
5278;DHT22;2662;51.194;6.614;2022-09-27T14:32:55;14.50;99.90
5278;DHT22;2662;51.194;6.614;2022-09-27T14:35:24;14.40;99.90
5278;DHT22;2662;51.194;6.614;2022-09-27T14:38:13;14.30;99.90
5278;DHT22;2662;51.194;6.614;2022-09-27T14:40:41;14.30;99.90
5278;DHT22;2662;51.194;6.614;2022-09-27T14:43:14;14.30;99.90
5278;DHT22;2662;51.194;6.614;2022-09-27T14:45:41;14.20;99.90
5278;DHT22;2662;51.194;6.614;2022-09-27T14:48:19;14.10;99.90
5278;DHT22;2662;51.194;6.614;2022-09-27T14:50:53;14.10;99.90
5278;DHT22;2662;51.194;6.614;2022-09-27T14:53:23;14.00;99.90
5278;DHT22;2662;51.194;6.614;2022-09-27T14:55:50;14.00;99.90
5278;DHT22;2662;51.194;6.614;2022-09-27T14:58:20;14.10;99.90
5278;DHT22;2662;51.194;6.614;2022-09-27T15:00:48;14.10;99.90
5278;DHT22;2662;51.194;6.614;2022-09-27T15:03:20;14.10;99.90
5278;DHT22;2662;51.194;6.614;2022-09-27T15:05:50;14.30;99.90
5278;DHT22;2662;51.194;6.614;2022-09-27T15:08:19;14.20;99.90
5278;DHT22;2662;51.194;6.614;2022-09-27T15:10:50;14.20;99.90
5278;DHT22;2662;51.194;6.614;2022-09-27T15:13:18;14.30;99.90
5278;DHT22;2662;51.194;6.614;2022-09-27T15:15:46;14.20;99.90
5278;DHT22;2662;51.194;6.614;2022-09-27T15:18:39;14.30;99.90
5278;DHT22;2662;51.194;6.614;2022-09-27T15:21:07;14.30;99.90
5278;DHT22;2662;51.194;6.614;2022-09-27T15:23:36;14.50;99.90
5278;DHT22;2662;51.194;6.614;2022-09-27T15:26:09;14.40;99.90
5278;DHT22;2662;51.194;6.614;2022-09-27T15:28:41;14.30;99.90
5278;DHT22;2662;51.194;6.614;2022-09-27T15:31:08;14.10;99.90
5278;DHT22;2662;51.194;6.614;2022-09-27T15:33:35;13.90;99.90
5278;DHT22;2662;51.194;6.614;2022-09-27T15:36:04;13.70;99.90
5278;DHT22;2662;51.194;6.614;2022-09-27T15:38:33;13.60;99.90
5278;DHT22;2662;51.194;6.614;2022-09-27T15:41:08;13.40;99.90
5278;DHT22;2662;51.194;6.614;2022-09-27T15:43:41;13.20;99.90
5278;DHT22;2662;51.194;6.614;2022-09-27T15:46:28;12.90;99.90
5278;DHT22;2662;51.194;6.614;2022-09-27T15:49:20;12.70;99.90
5278;DHT22;2662;51.194;6.614;2022-09-27T15:51:48;12.60;99.90
5278;DHT22;2662;51.194;6.614;2022-09-27T15:54:17;12.60;99.90
5278;DHT22;2662;51.194;6.614;2022-09-27T15:56:46;12.50;99.90
5278;DHT22;2662;51.194;6.614;2022-09-27T15:59:19;12.50;99.90
5278;DHT22;2662;51.194;6.614;2022-09-27T16:01:47;12.60;99.90
5278;DHT22;2662;51.194;6.614;2022-09-27T16:04:14;12.70;99.90
5278;DHT22;2662;51.194;6.614;2022-09-27T16:06:41;12.70;99.90
5278;DHT22;2662;51.194;6.614;2022-09-27T16:09:12;12.70;99.90
5278;DHT22;2662;51.194;6.614;2022-09-27T16:11:40;12.70;99.90
5278;DHT22;2662;51.194;6.614;2022-09-27T16:14:08;12.70;99.90
5278;DHT22;2662;51.194;6.614;2022-09-27T16:16:36;12.70;99.90
5278;DHT22;2662;51.194;6.614;2022-09-27T16:19:04;12.70;99.90
5278;DHT22;2662;51.194;6.614;2022-09-27T16:21:31;12.70;99.90
5278;DHT22;2662;51.194;6.614;2022-09-27T16:23:58;12.70;99.90
5278;DHT22;2662;51.194;6.614;2022-09-27T16:26:24;12.60;99.90
5278;DHT22;2662;51.194;6.614;2022-09-27T16:28:52;12.60;99.90
5278;DHT22;2662;51.194;6.614;2022-09-27T16:31:20;12.60;99.90
5278;DHT22;2662;51.194;6.614;2022-09-27T16:33:47;12.50;99.90
5278;DHT22;2662;51.194;6.614;2022-09-27T16:36:15;12.40;99.90
5278;DHT22;2662;51.194;6.614;2022-09-27T16:38:47;12.30;99.90
5278;DHT22;2662;51.194;6.614;2022-09-27T16:41:14;12.20;99.90